createdAt,value
2023-02-23T00:01:23.329Z,28.33
2023-02-23T00:03:50.966Z,30.30
2023-02-23T00:06:19.533Z,31.47
2023-02-23T00:08:49.858Z,30.50
2023-02-23T00:11:20.403Z,30.53
2023-02-23T00:13:50.021Z,27.10
2023-02-23T00:16:18.994Z,26.33
2023-02-23T00:18:49.108Z,29.13
2023-02-23T00:21:18.700Z,29.97
2023-02-23T00:23:51.069Z,31.63
2023-02-23T00:26:20.866Z,28.93
2023-02-23T00:28:49.665Z,25.43
2023-02-23T00:31:17.255Z,27.93
2023-02-23T00:33:44.657Z,27.83
2023-02-23T00:36:13.767Z,22.93
2023-02-23T00:38:41.779Z,25.77
2023-02-23T00:41:10.045Z,27.30
2023-02-23T00:43:38.055Z,29.23
2023-02-23T00:46:06.244Z,26.07
2023-02-23T00:48:34.697Z,28.00
2023-02-23T00:51:02.849Z,25.57
2023-02-23T00:53:30.380Z,26.87
2023-02-23T00:56:00.540Z,27.27
2023-02-23T00:58:28.080Z,24.97
2023-02-23T01:00:55.339Z,25.17
2023-02-23T01:03:22.606Z,24.60
2023-02-23T01:05:50.216Z,27.77
2023-02-23T01:08:19.418Z,28.63
2023-02-23T01:10:53.273Z,24.40
2023-02-23T01:13:21.828Z,27.97
2023-02-23T01:15:49.409Z,27.57
2023-02-23T01:18:17.479Z,29.07
2023-02-23T01:20:45.254Z,27.03
2023-02-23T01:23:13.572Z,25.90
2023-02-23T01:25:44.728Z,25.73
2023-02-23T01:28:12.384Z,25.57
2023-02-23T01:30:40.560Z,28.37
2023-02-23T01:33:08.049Z,27.70
2023-02-23T01:35:35.219Z,28.07
2023-02-23T01:38:03.668Z,26.70
2023-02-23T01:40:31.419Z,23.47
2023-02-23T01:43:12.004Z,24.83
2023-02-23T01:45:40.422Z,23.67
2023-02-23T01:48:12.574Z,24.23
2023-02-23T01:50:44.382Z,25.23
2023-02-23T01:53:11.708Z,23.30
2023-02-23T01:55:39.076Z,25.63
2023-02-23T01:58:15.151Z,25.30
2023-02-23T02:00:48.732Z,23.63
2023-02-23T02:03:22.717Z,24.13
2023-02-23T02:05:51.350Z,25.10
2023-02-23T02:08:19.177Z,29.07
2023-02-23T02:10:47.401Z,23.47
2023-02-23T02:13:21.739Z,25.17
2023-02-23T02:16:02.424Z,25.57
2023-02-23T02:18:44.358Z,25.80
2023-02-23T02:21:12.175Z,24.97
2023-02-23T02:23:55.791Z,24.53
2023-02-23T02:26:23.120Z,25.70
2023-02-23T02:28:54.811Z,27.27
2023-02-23T02:31:24.997Z,29.90
2023-02-23T02:34:01.622Z,29.50
2023-02-23T02:36:58.092Z,27.23
2023-02-23T02:39:36.305Z,29.27
2023-02-23T02:42:22.622Z,25.30
2023-02-23T02:44:52.863Z,27.53
2023-02-23T02:47:23.577Z,33.90
2023-02-23T02:50:02.956Z,31.10
2023-02-23T02:52:32.168Z,27.70
2023-02-23T02:55:04.394Z,28.73
2023-02-23T02:57:33.244Z,27.37
2023-02-23T03:00:19.244Z,27.53
2023-02-23T03:03:05.102Z,29.03
2023-02-23T03:05:57.101Z,25.10
2023-02-23T03:09:01.104Z,26.03
2023-02-23T03:11:54.016Z,27.23
2023-02-23T03:15:00.856Z,24.50
2023-02-23T03:18:01.411Z,29.30
2023-02-23T03:20:49.831Z,25.43
2023-02-23T03:23:41.507Z,28.17
2023-02-23T03:26:27.272Z,26.37
2023-02-23T03:29:17.956Z,26.40
2023-02-23T03:32:10.296Z,25.27
2023-02-23T03:35:16.438Z,27.07
2023-02-23T03:38:10.919Z,26.53
2023-02-23T03:40:59.294Z,24.90
2023-02-23T03:43:47.452Z,21.97
2023-02-23T03:46:33.946Z,24.63
2023-02-23T03:49:22.471Z,23.03
2023-02-23T03:52:11.555Z,22.17
2023-02-23T03:55:01.561Z,26.30
2023-02-23T03:57:49.759Z,24.40
2023-02-23T04:00:40.462Z,23.73
2023-02-23T04:03:27.709Z,25.30
2023-02-23T04:06:15.409Z,24.27
2023-02-23T04:09:02.027Z,23.93
2023-02-23T04:11:53.634Z,26.93
2023-02-23T04:14:25.150Z,23.73
2023-02-23T04:16:52.539Z,25.10
2023-02-23T04:19:20.844Z,21.40
2023-02-23T04:21:48.166Z,22.77
2023-02-23T04:24:15.441Z,24.87
2023-02-23T04:26:45.389Z,21.70
2023-02-23T04:29:13.080Z,24.53
2023-02-23T04:31:42.153Z,22.97
2023-02-23T04:34:09.348Z,25.37
2023-02-23T04:36:36.542Z,23.93
2023-02-23T04:39:04.196Z,21.27
2023-02-23T04:41:31.330Z,21.37
2023-02-23T04:43:58.643Z,19.33
2023-02-23T04:46:25.954Z,22.90
2023-02-23T04:48:53.077Z,23.37
2023-02-23T04:51:20.683Z,25.17
2023-02-23T04:53:47.904Z,25.93
2023-02-23T04:56:15.632Z,22.60
2023-02-23T04:58:42.858Z,22.53
2023-02-23T05:01:10.274Z,25.67
2023-02-23T05:03:37.511Z,21.10
2023-02-23T05:06:04.918Z,24.30
2023-02-23T05:08:32.114Z,22.70
2023-02-23T05:10:59.290Z,23.33
2023-02-23T05:13:26.430Z,29.70
2023-02-23T05:15:58.905Z,26.60
2023-02-23T05:18:26.640Z,26.40
2023-02-23T05:20:57.018Z,27.77
2023-02-23T05:23:24.178Z,28.00
2023-02-23T05:25:51.474Z,34.03
2023-02-23T05:28:18.851Z,31.80
2023-02-23T05:30:46.102Z,29.77
2023-02-23T05:33:15.109Z,24.10
2023-02-23T05:35:43.045Z,23.53
2023-02-23T05:38:10.149Z,27.37
2023-02-23T05:40:37.525Z,23.63
2023-02-23T05:43:05.881Z,26.43
2023-02-23T05:45:33.371Z,26.30
2023-02-23T05:48:00.706Z,21.37
2023-02-23T05:50:28.002Z,24.47
2023-02-23T05:52:55.293Z,22.83
2023-02-23T05:55:22.487Z,24.47
2023-02-23T05:57:50.696Z,24.10
2023-02-23T06:00:18.470Z,23.33
2023-02-23T06:02:45.614Z,24.03
2023-02-23T06:05:13.592Z,21.97
2023-02-23T06:07:40.741Z,24.60
2023-02-23T06:10:08.328Z,24.53
2023-02-23T06:12:35.762Z,24.33
2023-02-23T06:15:02.945Z,22.90
2023-02-23T06:17:30.926Z,24.90
2023-02-23T06:19:59.728Z,25.87
2023-02-23T06:22:26.866Z,28.23
2023-02-23T06:24:54.014Z,24.20
2023-02-23T06:27:21.173Z,27.23
2023-02-23T06:29:48.318Z,26.17
2023-02-23T06:32:15.648Z,24.70
2023-02-23T06:34:42.864Z,24.97
2023-02-23T06:37:10.133Z,26.27
2023-02-23T06:39:37.301Z,24.87
2023-02-23T06:42:04.421Z,23.77
2023-02-23T06:44:35.329Z,26.87
2023-02-23T06:47:05.657Z,25.83
2023-02-23T06:49:32.911Z,27.20
2023-02-23T06:52:00.176Z,21.80
2023-02-23T06:54:27.366Z,24.73
2023-02-23T06:56:55.738Z,27.50
2023-02-23T06:59:24.031Z,29.03
2023-02-23T07:01:51.416Z,24.33
2023-02-23T07:04:18.645Z,24.83
2023-02-23T07:06:45.791Z,24.97
2023-02-23T07:09:12.922Z,26.87
2023-02-23T07:11:41.678Z,21.97
2023-02-23T07:14:15.369Z,21.43
2023-02-23T07:16:48.590Z,33.67
2023-02-23T07:19:15.745Z,50.33
2023-02-23T07:21:42.917Z,73.33
2023-02-23T07:24:10.099Z,49.17
2023-02-23T07:26:37.283Z,71.50
2023-02-23T07:29:04.532Z,73.67
2023-02-23T07:31:31.703Z,46.63
2023-02-23T07:33:59.017Z,60.23
2023-02-23T07:36:26.606Z,28.23
2023-02-23T07:38:54.331Z,38.40
2023-02-23T07:41:22.214Z,59.23
2023-02-23T07:43:52.572Z,37.10
2023-02-23T07:46:19.732Z,33.93
2023-02-23T07:48:46.965Z,48.50
2023-02-23T07:51:15.426Z,32.27
2023-02-23T07:53:43.035Z,30.93
2023-02-23T07:56:11.186Z,28.27
2023-02-23T07:58:42.800Z,28.20
2023-02-23T08:01:11.357Z,26.03
2023-02-23T08:03:39.360Z,26.97
2023-02-23T08:06:06.864Z,28.20
2023-02-23T08:08:35.377Z,29.43
2023-02-23T08:11:03.825Z,24.60
2023-02-23T08:13:31.893Z,28.73
2023-02-23T08:15:59.293Z,22.83
2023-02-23T08:18:27.738Z,24.57
2023-02-23T08:20:58.843Z,23.93
2023-02-23T08:23:26.214Z,21.37
2023-02-23T08:25:54.721Z,22.73
2023-02-23T08:28:22.576Z,20.40
2023-02-23T08:30:49.833Z,21.57
2023-02-23T08:33:17.323Z,20.97
2023-02-23T08:35:45.336Z,20.13
2023-02-23T08:38:12.750Z,20.10
2023-02-23T08:40:39.972Z,20.23
2023-02-23T08:43:07.094Z,19.00
2023-02-23T08:45:34.267Z,18.30
2023-02-23T08:48:01.386Z,17.63
2023-02-23T08:50:28.598Z,19.17
2023-02-23T08:52:55.814Z,17.73
2023-02-23T08:55:23.914Z,19.80
2023-02-23T08:57:51.094Z,17.90
2023-02-23T09:00:18.518Z,17.07
2023-02-23T09:02:48.263Z,17.57
2023-02-23T09:05:15.671Z,18.13
2023-02-23T09:07:46.302Z,18.03
2023-02-23T09:10:14.962Z,16.90
2023-02-23T09:12:42.124Z,19.13
2023-02-23T09:15:09.765Z,14.40
2023-02-23T09:17:36.994Z,17.07
2023-02-23T09:20:05.190Z,14.77
2023-02-23T09:22:32.834Z,15.47
2023-02-23T09:25:00.025Z,14.70
2023-02-23T09:27:27.342Z,14.73
2023-02-23T09:29:54.500Z,14.93
2023-02-23T09:32:21.862Z,17.17
2023-02-23T09:34:49.925Z,17.70
2023-02-23T09:37:17.047Z,15.43
2023-02-23T09:39:46.861Z,15.87
2023-02-23T09:42:29.314Z,15.97
2023-02-23T09:45:06.233Z,16.90
2023-02-23T09:47:41.119Z,14.83
2023-02-23T09:50:21.390Z,16.67
2023-02-23T09:52:50.053Z,15.43
2023-02-23T09:55:17.302Z,14.00
2023-02-23T09:57:48.862Z,15.20
2023-02-23T10:00:30.152Z,14.63
2023-02-23T10:03:00.613Z,15.50
2023-02-23T10:05:30.255Z,16.27
2023-02-23T10:08:01.520Z,14.33
2023-02-23T10:10:47.164Z,17.53
2023-02-23T10:13:29.444Z,15.37
2023-02-23T10:15:59.324Z,12.97
2023-02-23T10:18:46.189Z,15.67
2023-02-23T10:21:14.229Z,15.80
2023-02-23T10:23:43.812Z,14.47
2023-02-23T10:26:16.658Z,12.43
2023-02-23T10:28:44.971Z,14.27
2023-02-23T10:31:28.874Z,13.07
2023-02-23T10:33:58.557Z,13.23
2023-02-23T10:36:32.149Z,13.27
2023-02-23T10:38:59.336Z,13.93
2023-02-23T10:41:26.546Z,10.23
2023-02-23T10:43:53.728Z,13.10
2023-02-23T10:46:23.284Z,12.00
2023-02-23T10:48:53.760Z,14.20
2023-02-23T10:51:22.711Z,11.80
2023-02-23T10:53:49.946Z,11.63
2023-02-23T10:56:18.714Z,9.40
2023-02-23T10:58:53.378Z,10.67
2023-02-23T11:02:01.082Z,11.70
2023-02-23T11:04:30.550Z,11.93
2023-02-23T11:07:13.248Z,9.80
2023-02-23T11:09:46.982Z,10.83
2023-02-23T11:12:21.629Z,11.23
2023-02-23T11:14:53.275Z,11.20
2023-02-23T11:17:29.998Z,12.57
2023-02-23T11:20:15.614Z,11.07
2023-02-23T11:22:43.249Z,9.17
2023-02-23T11:25:28.510Z,9.70
2023-02-23T11:27:57.200Z,14.63
2023-02-23T11:30:28.798Z,12.77
2023-02-23T11:32:58.325Z,12.70
2023-02-23T11:35:27.834Z,13.33
2023-02-23T11:37:55.703Z,12.63
2023-02-23T11:40:34.834Z,15.70
2023-02-23T11:43:09.920Z,16.93
2023-02-23T11:45:46.178Z,10.53
2023-02-23T11:48:36.796Z,13.63
2023-02-23T11:51:05.218Z,13.83
2023-02-23T11:53:35.939Z,13.67
2023-02-23T11:56:11.154Z,16.43
2023-02-23T11:58:45.036Z,12.53
2023-02-23T12:01:14.051Z,9.70
2023-02-23T12:03:47.941Z,12.10
2023-02-23T12:06:30.545Z,12.47
2023-02-23T12:09:02.914Z,10.07
2023-02-23T12:11:32.499Z,11.03
2023-02-23T12:14:08.657Z,11.53
2023-02-23T12:16:35.870Z,12.40
2023-02-23T12:19:23.412Z,13.90
2023-02-23T12:22:01.836Z,16.00
2023-02-23T12:24:35.013Z,11.23
2023-02-23T12:27:06.495Z,10.27
2023-02-23T12:29:53.935Z,12.07
2023-02-23T12:32:24.520Z,14.27
2023-02-23T12:34:55.390Z,10.20
2023-02-23T12:37:36.990Z,12.83
2023-02-23T12:40:29.857Z,13.53
2023-02-23T12:43:00.009Z,15.57
2023-02-23T12:45:27.176Z,11.40
2023-02-23T12:48:03.323Z,12.47
2023-02-23T12:50:36.010Z,14.10
2023-02-23T12:53:12.475Z,13.33
2023-02-23T12:55:59.263Z,14.30
2023-02-23T12:58:47.534Z,12.40
2023-02-23T13:01:22.455Z,13.00
2023-02-23T13:04:10.156Z,12.30
2023-02-23T13:06:51.985Z,12.93
2023-02-23T13:09:37.023Z,14.93
2023-02-23T13:12:13.390Z,8.17
2023-02-23T13:14:43.116Z,7.63
2023-02-23T13:17:26.208Z,9.23
2023-02-23T13:19:56.194Z,5.20
2023-02-23T13:22:30.613Z,7.07
2023-02-23T13:24:59.906Z,6.13
2023-02-23T13:27:38.808Z,8.57
2023-02-23T13:30:09.493Z,8.27
2023-02-23T13:32:38.912Z,6.30
2023-02-23T13:35:08.111Z,5.90
2023-02-23T13:37:41.302Z,9.27
2023-02-23T13:40:20.935Z,7.93
2023-02-23T13:42:56.799Z,7.33
2023-02-23T13:45:27.608Z,7.33
2023-02-23T13:48:13.695Z,7.97
2023-02-23T13:50:46.561Z,6.87
2023-02-23T13:53:37.220Z,11.07
2023-02-23T13:56:22.750Z,10.33
2023-02-23T13:58:53.310Z,28.30
2023-02-23T14:01:28.218Z,9.37
2023-02-23T14:04:00.683Z,12.07
2023-02-23T14:06:29.825Z,25.30
2023-02-23T14:09:07.134Z,15.40
2023-02-23T14:11:47.109Z,14.90
2023-02-23T14:14:16.972Z,15.00
2023-02-23T14:16:46.417Z,13.07
2023-02-23T14:19:52.528Z,13.07
2023-02-23T14:22:22.293Z,15.57
2023-02-23T14:25:08.579Z,13.47
2023-02-23T14:27:44.221Z,17.23
2023-02-23T14:30:11.410Z,15.03
2023-02-23T14:32:39.756Z,10.67
2023-02-23T14:35:27.633Z,8.90
2023-02-23T14:38:00.771Z,10.33
2023-02-23T14:40:35.667Z,9.27
2023-02-23T14:43:03.805Z,8.03
2023-02-23T14:45:38.901Z,5.33
2023-02-23T14:48:07.760Z,5.97
2023-02-23T14:50:36.096Z,7.67
2023-02-23T14:53:04.466Z,8.00
2023-02-23T14:55:35.405Z,5.80
2023-02-23T14:58:02.836Z,5.47
2023-02-23T15:00:32.560Z,5.93
2023-02-23T15:03:01.414Z,6.57
2023-02-23T15:05:34.072Z,5.50
2023-02-23T15:08:03.614Z,13.13
2023-02-23T15:10:36.312Z,12.83
2023-02-23T15:13:17.147Z,9.83
2023-02-23T15:15:46.289Z,9.57
2023-02-23T15:18:20.500Z,11.30
2023-02-23T15:20:48.937Z,8.97
2023-02-23T15:23:18.120Z,6.07
2023-02-23T15:25:48.182Z,5.80
2023-02-23T15:28:26.581Z,5.03
2023-02-23T15:30:56.120Z,6.87
2023-02-23T15:33:28.749Z,8.07
2023-02-23T15:35:59.554Z,7.43
2023-02-23T15:38:42.825Z,8.17
2023-02-23T15:41:15.649Z,7.90
2023-02-23T15:43:43.656Z,9.80
2023-02-23T15:46:23.281Z,9.37
2023-02-23T15:48:51.428Z,5.70
2023-02-23T15:51:23.255Z,6.40
2023-02-23T15:53:50.486Z,10.27
2023-02-23T15:56:23.796Z,7.60
2023-02-23T15:58:57.457Z,4.97
2023-02-23T16:01:26.588Z,5.77
2023-02-23T16:04:02.926Z,5.83
2023-02-23T16:06:42.487Z,5.50
2023-02-23T16:09:23.984Z,5.60
2023-02-23T16:12:01.956Z,6.20
2023-02-23T16:14:32.964Z,9.47
2023-02-23T16:17:12.717Z,8.03
2023-02-23T16:19:41.588Z,4.23
2023-02-23T16:22:12.024Z,7.10
2023-02-23T16:24:39.277Z,4.87
2023-02-23T16:27:06.599Z,4.57
2023-02-23T16:29:41.484Z,3.83
2023-02-23T16:32:19.109Z,5.20
2023-02-23T16:35:09.692Z,6.30
2023-02-23T16:37:49.983Z,8.40
2023-02-23T16:40:17.160Z,9.73
2023-02-23T16:42:44.342Z,13.60
2023-02-23T16:45:15.189Z,9.97
2023-02-23T16:47:43.939Z,10.30
2023-02-23T16:50:21.762Z,12.10
2023-02-23T16:52:53.742Z,12.53
2023-02-23T16:55:25.970Z,11.70
2023-02-23T16:57:58.500Z,15.53
2023-02-23T17:00:29.179Z,16.50
2023-02-23T17:02:57.575Z,10.30
2023-02-23T17:05:25.793Z,8.33
2023-02-23T17:07:54.018Z,9.10
2023-02-23T17:10:26.133Z,8.47
2023-02-23T17:12:54.221Z,9.47
2023-02-23T17:15:25.000Z,10.63
2023-02-23T17:17:53.353Z,12.00
2023-02-23T17:20:21.462Z,10.23
2023-02-23T17:22:51.516Z,11.20
2023-02-23T17:25:19.172Z,11.50
2023-02-23T17:27:46.332Z,11.53
2023-02-23T17:30:13.974Z,7.30
2023-02-23T17:32:41.361Z,2.23
2023-02-23T17:35:08.984Z,2.83
2023-02-23T17:37:37.622Z,4.47
2023-02-23T17:40:06.136Z,9.27
2023-02-23T17:42:35.025Z,11.37
2023-02-23T17:45:03.311Z,7.90
2023-02-23T17:47:31.845Z,5.03
2023-02-23T17:49:59.546Z,4.80
2023-02-23T17:52:30.231Z,10.10
2023-02-23T17:54:59.412Z,10.23
2023-02-23T17:57:28.235Z,7.03
2023-02-23T17:59:55.511Z,10.27
2023-02-23T18:02:23.242Z,12.00
2023-02-23T18:04:51.190Z,12.17
2023-02-23T18:07:19.201Z,14.90
2023-02-23T18:09:50.234Z,13.63
2023-02-23T18:12:19.440Z,12.80
2023-02-23T18:14:47.040Z,9.70
2023-02-23T18:17:15.849Z,9.63
2023-02-23T18:19:44.286Z,9.67
2023-02-23T18:22:12.674Z,9.50
2023-02-23T18:24:41.517Z,4.73
2023-02-23T18:27:08.806Z,3.83
2023-02-23T18:29:36.219Z,3.60
2023-02-23T18:32:04.599Z,5.17
2023-02-23T18:34:32.014Z,3.50
2023-02-23T18:37:02.527Z,5.03
2023-02-23T18:39:31.025Z,6.40
2023-02-23T18:41:58.531Z,6.60
2023-02-23T18:44:26.245Z,6.50
2023-02-23T18:46:54.943Z,7.80
2023-02-23T18:49:23.826Z,9.60
2023-02-23T18:51:51.082Z,9.77
2023-02-23T18:54:18.899Z,13.33
2023-02-23T18:56:47.195Z,13.60
2023-02-23T18:59:15.575Z,17.13
2023-02-23T19:01:45.493Z,16.27
2023-02-23T19:04:13.235Z,14.17
2023-02-23T19:06:42.049Z,18.83
2023-02-23T19:09:10.161Z,14.13
2023-02-23T19:11:37.998Z,12.23
2023-02-23T19:14:07.400Z,13.33
2023-02-23T19:16:35.200Z,11.73
2023-02-23T19:19:04.094Z,16.10
2023-02-23T19:21:31.759Z,21.17
2023-02-23T19:24:01.068Z,19.33
2023-02-23T19:26:29.436Z,13.87
2023-02-23T19:28:57.309Z,22.03
2023-02-23T19:31:26.391Z,23.43
2023-02-23T19:33:55.785Z,16.17
2023-02-23T19:36:24.188Z,14.63
2023-02-23T19:38:51.324Z,16.97
2023-02-23T19:41:20.237Z,15.83
2023-02-23T19:43:47.890Z,17.53
2023-02-23T19:46:17.234Z,20.03
2023-02-23T19:48:45.694Z,8.10
2023-02-23T19:51:13.996Z,6.67
2023-02-23T19:53:41.401Z,24.27
2023-02-23T19:56:12.721Z,38.60
2023-02-23T19:58:43.096Z,27.73
2023-02-23T20:01:11.597Z,26.60
2023-02-23T20:03:43.297Z,28.60
2023-02-23T20:06:14.747Z,19.60
2023-02-23T20:08:43.458Z,22.97
2023-02-23T20:11:11.326Z,22.17
2023-02-23T20:13:41.618Z,24.40
2023-02-23T20:16:10.003Z,28.10
2023-02-23T20:18:38.544Z,27.67
2023-02-23T20:21:14.177Z,29.93
2023-02-23T20:23:42.238Z,27.50
2023-02-23T20:26:11.232Z,24.93
2023-02-23T20:28:38.600Z,17.67
2023-02-23T20:31:11.734Z,17.50
2023-02-23T20:33:38.998Z,17.43
2023-02-23T20:36:06.208Z,16.70
2023-02-23T20:38:33.627Z,21.53
2023-02-23T20:41:03.065Z,20.20
2023-02-23T20:43:30.797Z,20.57
2023-02-23T20:46:01.614Z,17.67
2023-02-23T20:48:29.436Z,21.40
2023-02-23T20:50:57.180Z,22.93
2023-02-23T20:53:25.221Z,22.97
2023-02-23T20:55:53.017Z,28.57
2023-02-23T20:58:26.349Z,26.97
2023-02-23T21:01:03.935Z,26.93
2023-02-23T21:03:31.410Z,23.73
2023-02-23T21:05:58.595Z,25.30
2023-02-23T21:08:25.708Z,25.93
2023-02-23T21:10:52.857Z,25.97
2023-02-23T21:13:22.143Z,27.43
2023-02-23T21:15:56.530Z,17.13
2023-02-23T21:18:23.925Z,13.60
2023-02-23T21:20:51.185Z,27.07
2023-02-23T21:23:20.416Z,8.63
2023-02-23T21:25:48.916Z,17.40
2023-02-23T21:28:16.102Z,49.10
2023-02-23T21:30:43.275Z,76.13
2023-02-23T21:33:10.428Z,11.93
2023-02-23T21:35:38.437Z,10.00
2023-02-23T21:38:08.473Z,8.93
2023-02-23T21:40:35.927Z,8.93
2023-02-23T21:43:08.621Z,8.70
2023-02-23T21:45:36.133Z,10.57
2023-02-23T21:48:04.420Z,9.80
2023-02-23T21:50:31.620Z,12.13
2023-02-23T21:52:58.843Z,12.57
2023-02-23T21:55:25.980Z,11.83
2023-02-23T21:57:53.489Z,9.80
2023-02-23T22:00:21.924Z,12.53
2023-02-23T22:02:49.662Z,12.90
2023-02-23T22:05:17.880Z,17.13
2023-02-23T22:07:52.876Z,14.93
2023-02-23T22:10:21.297Z,12.53
2023-02-23T22:12:53.028Z,12.60
2023-02-23T22:15:21.100Z,15.20
2023-02-23T22:17:48.400Z,16.70
2023-02-23T22:20:20.011Z,16.60
2023-02-23T22:22:52.730Z,21.10
2023-02-23T22:25:20.703Z,26.47
2023-02-23T22:27:48.330Z,22.60
2023-02-23T22:30:16.158Z,21.33
2023-02-23T22:32:44.011Z,24.57
2023-02-23T22:35:11.632Z,29.17
2023-02-23T22:37:39.485Z,39.67
2023-02-23T22:40:17.207Z,31.57
2023-02-23T22:42:48.771Z,32.30
2023-02-23T22:45:16.360Z,27.67
2023-02-23T22:47:43.669Z,13.43
2023-02-23T22:50:18.329Z,10.50
2023-02-23T22:52:46.185Z,22.80
2023-02-23T22:55:13.337Z,40.13
2023-02-23T22:57:41.104Z,37.67
2023-02-23T23:00:12.547Z,38.77
2023-02-23T23:02:40.543Z,25.00
2023-02-23T23:05:08.220Z,22.17
2023-02-23T23:07:35.475Z,20.57
2023-02-23T23:10:05.501Z,19.53
2023-02-23T23:12:34.555Z,23.20
2023-02-23T23:15:02.169Z,18.50
2023-02-23T23:17:29.842Z,18.57
2023-02-23T23:19:57.541Z,19.37
2023-02-23T23:22:25.317Z,17.53
2023-02-23T23:24:52.959Z,19.53
2023-02-23T23:27:21.552Z,17.67
2023-02-23T23:29:49.275Z,17.20
2023-02-23T23:32:18.745Z,16.40
2023-02-23T23:34:49.939Z,17.00
2023-02-23T23:37:17.965Z,14.60
2023-02-23T23:39:45.889Z,18.80
2023-02-23T23:42:13.059Z,18.57
2023-02-23T23:44:40.263Z,16.70
2023-02-23T23:47:08.094Z,26.60
2023-02-23T23:49:39.804Z,18.30
2023-02-23T23:52:07.576Z,14.50
2023-02-23T23:54:39.486Z,14.90
2023-02-23T23:57:07.192Z,28.90
2023-02-23T23:59:35.509Z,28.93
